createdAt,value
2023-03-17T09:07:02.746Z,22.3048
2023-03-17T09:07:53.378Z,22.4242
2023-03-17T09:08:55.091Z,22.5723
2023-03-17T09:09:56.865Z,22.7280
2023-03-17T09:10:58.611Z,22.9048
2023-03-17T09:12:00.369Z,23.2045
2023-03-17T09:14:01.953Z,23.4601
2023-03-17T09:15:03.713Z,23.2423
2023-03-17T09:16:49.654Z,23.0364
2023-03-17T09:17:51.378Z,23.0476
2023-03-17T09:18:53.466Z,23.1488
2023-03-17T09:19:55.197Z,23.1094
2023-03-17T09:20:56.920Z,23.0301
2023-03-17T09:21:58.686Z,22.9601
2023-03-17T09:23:00.462Z,22.9742
2023-03-17T09:24:02.751Z,23.1049
2023-03-17T09:27:07.894Z,22.9576
2023-03-17T09:28:09.783Z,22.8292
2023-03-17T09:29:11.441Z,22.8161
2023-03-17T09:30:13.174Z,22.9075
2023-03-17T09:31:14.992Z,22.9833
2023-03-17T09:32:16.679Z,23.0268
2023-03-17T09:33:18.428Z,23.0086
2023-03-17T09:34:20.204Z,23.0519
2023-03-17T09:35:21.972Z,23.2092
2023-03-17T09:36:23.750Z,23.2242
2023-03-17T09:37:25.452Z,23.2070
2023-03-17T09:38:27.202Z,23.2273
2023-03-17T09:39:28.987Z,23.2470
2023-03-17T09:40:31.187Z,23.2433
2023-03-17T09:41:32.477Z,23.2279
2023-03-17T09:42:34.225Z,23.2616
2023-03-17T09:44:37.709Z,23.3625
2023-03-17T09:45:41.664Z,23.2121
2023-03-17T09:46:41.275Z,23.2546
2023-03-17T10:01:05.576Z,22.3737
2023-03-17T10:02:07.361Z,22.5030
2023-03-17T10:03:09.089Z,22.8309
2023-03-17T10:05:12.671Z,23.1154
2023-03-17T10:13:35.492Z,23.5202
2023-03-17T10:14:37.281Z,23.5217
2023-03-17T10:15:39.023Z,23.5223
2023-03-17T10:16:40.775Z,23.5280
2023-03-17T17:04:51.542Z,22.1768
2023-03-17T17:05:53.608Z,22.2968
2023-03-17T17:06:55.330Z,22.4644
2023-03-17T17:09:32.807Z,23.0509
2023-03-17T17:29:27.896Z,24.0578
2023-03-17T18:44:34.627Z,24.2187
2023-03-17T18:45:36.349Z,24.1929
2023-03-17T18:46:38.113Z,24.1753
2023-03-17T18:47:39.819Z,24.1755
2023-03-17T18:48:41.574Z,24.1993
2023-03-17T18:49:44.915Z,24.2420
2023-03-17T18:50:45.078Z,24.3065
2023-03-17T18:51:46.824Z,24.3273
2023-03-17T18:52:48.640Z,24.3606
2023-03-17T18:53:50.259Z,24.3608
2023-03-17T18:54:52.095Z,24.3684
2023-03-17T18:55:53.758Z,24.3793
2023-03-17T18:56:55.532Z,24.3963
2023-03-17T18:57:57.333Z,24.4193
2023-03-17T18:58:59.164Z,24.4140
2023-03-17T19:00:00.925Z,24.4286
2023-03-17T19:01:02.588Z,24.4327
2023-03-17T19:02:04.243Z,24.4466
2023-03-17T19:03:06.036Z,24.4590
2023-03-17T19:04:07.756Z,24.4663
2023-03-17T19:05:09.562Z,24.4735
2023-03-17T19:06:11.268Z,24.4811
2023-03-17T19:07:12.994Z,24.4832
2023-03-17T19:08:14.703Z,24.4912
2023-03-17T19:09:16.486Z,24.4972
2023-03-17T19:10:18.226Z,24.5278
2023-03-17T19:11:19.983Z,24.5446
2023-03-17T19:12:21.694Z,24.5557
2023-03-17T19:13:23.496Z,24.5783
2023-03-17T19:14:25.215Z,24.5923
2023-03-17T19:15:27.229Z,24.6038
2023-03-17T19:16:28.767Z,24.6073
2023-03-17T19:17:30.491Z,24.6321
2023-03-17T19:18:32.320Z,24.6192
2023-03-17T19:19:33.961Z,24.6190
2023-03-17T19:20:36.038Z,24.6344
2023-03-17T19:21:37.448Z,24.6479
2023-03-17T19:22:39.169Z,24.6323
2023-03-17T19:23:40.939Z,24.5898
2023-03-17T19:24:42.673Z,24.5984
2023-03-17T19:25:44.753Z,24.6112
2023-03-17T19:26:46.154Z,24.6220
2023-03-17T19:27:47.935Z,24.6204
2023-03-17T19:28:49.672Z,24.6079
2023-03-17T19:29:51.743Z,24.5419
2023-03-17T19:30:53.228Z,24.5222
2023-03-17T19:31:54.924Z,24.4820
2023-03-17T19:32:56.766Z,24.4606
2023-03-17T19:33:58.386Z,24.4590
2023-03-17T19:35:00.164Z,24.4429
2023-03-17T19:36:01.965Z,24.4372
2023-03-17T19:37:03.794Z,24.4125
2023-03-17T19:38:05.383Z,24.4154
2023-03-17T19:39:07.158Z,24.4131
2023-03-17T19:40:08.881Z,24.4014
2023-03-17T19:41:10.689Z,24.3965
2023-03-17T19:42:12.370Z,24.3758
2023-03-17T19:43:22.632Z,24.3575
2023-03-17T19:44:15.875Z,24.3491
2023-03-17T19:45:17.704Z,24.3326
2023-03-17T19:46:19.485Z,24.3002
2023-03-17T19:47:21.144Z,24.2866
2023-03-17T19:48:22.870Z,24.2657
2023-03-17T19:49:24.645Z,24.2464
2023-03-17T19:50:26.358Z,24.2402
2023-03-17T19:51:28.280Z,24.2287
2023-03-17T19:52:29.863Z,24.2361
2023-03-17T19:53:31.687Z,24.2151
2023-03-17T19:54:33.357Z,24.2032
2023-03-17T19:55:35.156Z,24.1993
2023-03-17T19:56:37.003Z,24.1821
2023-03-17T19:57:38.611Z,24.1767
2023-03-17T19:58:40.338Z,24.1689
2023-03-17T19:59:42.110Z,24.1521
2023-03-17T20:00:43.834Z,24.1412
2023-03-17T20:01:45.675Z,24.1402
2023-03-17T20:02:47.334Z,24.1321
2023-03-17T20:03:49.109Z,24.1149
2023-03-17T20:04:50.877Z,24.1176
2023-03-17T20:05:52.603Z,24.0937
2023-03-17T20:06:54.356Z,24.0876
2023-03-17T20:07:56.091Z,24.0699
2023-03-17T20:08:57.801Z,24.0740
2023-03-17T20:09:59.845Z,24.0765
2023-03-17T20:11:01.297Z,24.0720
2023-03-17T20:12:03.117Z,24.0625
2023-03-17T20:13:04.792Z,24.0685
2023-03-17T20:14:06.562Z,24.0420
2023-03-17T20:15:08.282Z,24.0360
2023-03-17T20:16:10.093Z,24.0140
2023-03-17T20:17:11.857Z,24.0064
2023-03-17T20:18:13.547Z,24.0054
2023-03-17T20:19:15.288Z,23.9875
2023-03-17T20:20:17.043Z,23.9806
2023-03-17T20:21:18.763Z,24.0005
2023-03-17T20:22:20.555Z,23.9896
2023-03-17T20:23:22.261Z,23.9758
2023-03-17T20:24:24.030Z,23.9793
2023-03-17T20:25:25.760Z,23.9771
2023-03-17T20:26:27.554Z,23.9865
2023-03-17T20:27:29.279Z,23.9808
2023-03-17T20:28:31.028Z,23.9812
2023-03-17T20:29:32.758Z,23.9845
2023-03-17T20:30:34.534Z,23.9803
2023-03-17T20:31:36.277Z,23.9820
2023-03-17T20:32:38.098Z,23.9816
2023-03-17T20:33:39.742Z,23.9927
2023-03-17T20:34:41.532Z,23.9988
2023-03-17T20:35:43.277Z,23.9992
2023-03-17T20:36:45.027Z,24.0105
2023-03-17T20:37:46.779Z,24.0112
2023-03-17T20:38:48.519Z,24.0130
2023-03-17T20:39:50.233Z,24.0155
2023-03-17T20:40:52.016Z,24.0087
2023-03-17T20:41:54.033Z,24.0179
2023-03-17T20:42:55.647Z,23.9970
2023-03-17T20:43:57.287Z,23.9974
2023-03-17T20:44:59.166Z,24.0282
2023-03-17T20:46:00.784Z,24.0340
2023-03-17T20:47:02.512Z,24.0635
2023-03-17T20:48:04.258Z,24.0859
2023-03-17T20:49:06.000Z,24.0931
2023-03-17T20:50:07.725Z,24.1085
2023-03-17T20:51:09.497Z,24.1291
2023-03-17T20:52:11.238Z,24.1455
2023-03-17T20:53:13.014Z,24.1617
2023-03-17T20:54:14.743Z,24.1728
2023-03-17T20:55:16.493Z,24.1732
2023-03-17T20:56:18.208Z,24.1962
2023-03-17T20:57:19.982Z,24.1983
2023-03-17T20:58:21.735Z,24.1987
2023-03-17T20:59:23.469Z,24.2010
2023-03-17T21:00:25.244Z,24.2014
2023-03-17T21:01:26.996Z,24.2151
2023-03-17T21:02:28.710Z,24.2482
2023-03-17T21:03:30.545Z,24.2622
2023-03-17T21:04:32.201Z,24.2476
2023-03-17T21:05:33.961Z,24.2381
2023-03-17T21:06:35.844Z,24.2507
2023-03-17T21:07:37.479Z,24.2860
2023-03-17T21:08:41.340Z,24.3160
2023-03-17T21:09:41.099Z,24.3567
2023-03-17T21:10:42.656Z,24.3632
2023-03-17T21:11:44.516Z,24.3793
2023-03-17T21:12:46.148Z,24.3827
2023-03-17T21:13:47.976Z,24.3817
2023-03-17T21:14:49.704Z,24.3858
2023-03-17T21:15:51.483Z,24.3963
2023-03-17T21:16:53.163Z,24.4125
2023-03-17T21:17:54.919Z,24.4195
2023-03-17T21:18:56.671Z,24.4257
2023-03-17T21:19:58.415Z,24.4335
2023-03-17T21:21:00.136Z,24.4415
2023-03-17T21:22:01.922Z,24.4433
2023-03-17T21:23:03.640Z,24.4392
2023-03-17T21:24:05.444Z,24.4458
2023-03-17T21:25:07.165Z,24.4450
2023-03-17T21:26:08.899Z,24.4438
2023-03-17T21:27:10.669Z,24.4487
2023-03-17T21:28:12.436Z,24.4550
2023-03-17T21:29:14.150Z,24.4509
2023-03-17T21:30:15.902Z,24.4511
2023-03-17T21:31:17.682Z,24.4550
2023-03-17T21:32:19.389Z,24.4635
2023-03-17T21:33:21.140Z,24.4596
2023-03-17T21:34:23.826Z,24.4583
2023-03-17T21:35:24.631Z,24.4565
2023-03-17T21:36:26.403Z,24.4374
2023-03-17T21:37:28.172Z,24.4181
2023-03-17T21:38:29.915Z,24.4179
2023-03-17T21:39:31.646Z,24.4269
2023-03-17T21:40:33.629Z,24.4302
2023-03-17T21:41:35.121Z,24.4306
2023-03-17T21:42:36.887Z,24.4339
2023-03-17T21:43:38.625Z,24.4405
2023-03-17T21:44:40.461Z,24.4345
2023-03-17T21:45:42.151Z,24.4409
2023-03-17T21:46:43.895Z,24.4384
2023-03-17T21:47:45.609Z,24.4452
2023-03-17T21:48:47.394Z,24.4479
2023-03-17T21:49:49.197Z,24.4388
2023-03-17T21:50:50.885Z,24.4419
2023-03-17T21:51:52.605Z,24.4470
2023-03-17T21:52:54.383Z,24.4440
2023-03-17T21:53:56.121Z,24.4516
2023-03-17T21:54:57.900Z,24.4590
2023-03-17T21:55:59.599Z,24.4569
2023-03-17T21:57:01.385Z,24.4567
2023-03-17T21:58:03.185Z,24.4647
2023-03-17T21:59:04.883Z,24.4649
2023-03-17T22:00:06.803Z,24.4711
2023-03-17T22:01:08.410Z,24.4715
2023-03-17T22:02:10.110Z,24.4684
2023-03-17T22:03:11.987Z,24.4766
2023-03-17T22:04:13.604Z,24.4663
2023-03-17T22:05:15.425Z,24.4596
2023-03-17T22:06:17.092Z,24.4686
2023-03-17T22:07:18.856Z,24.4680
2023-03-17T22:08:20.575Z,24.4663
2023-03-17T22:09:22.350Z,24.4579
2023-03-17T22:10:24.226Z,24.4602
2023-03-17T22:11:25.848Z,24.4618
2023-03-17T22:12:27.599Z,24.4682
2023-03-17T22:13:29.378Z,24.4692
2023-03-17T22:14:31.081Z,24.4698
2023-03-17T22:15:32.877Z,24.4729
2023-03-17T22:16:34.610Z,24.4826
2023-03-17T22:17:36.343Z,24.4750
2023-03-17T22:18:38.085Z,24.4756
2023-03-17T22:19:39.834Z,24.4754
2023-03-17T22:20:41.571Z,24.4783
2023-03-17T22:21:43.308Z,24.4815
2023-03-17T22:22:45.049Z,24.4949
2023-03-17T22:23:46.847Z,24.5124
2023-03-17T22:24:48.555Z,24.5062
2023-03-17T22:25:50.343Z,24.5021
2023-03-17T22:26:52.862Z,24.5041
2023-03-17T22:27:55.003Z,24.5204
2023-03-17T22:28:55.544Z,24.5089
2023-03-17T22:29:58.531Z,24.5269
2023-03-17T22:30:59.072Z,24.5208
2023-03-17T22:32:01.040Z,24.5054
2023-03-17T22:33:02.629Z,24.5169
2023-03-17T22:34:04.316Z,24.5152
2023-03-17T22:35:06.051Z,24.5132
2023-03-17T22:36:07.828Z,24.4930
2023-03-17T22:37:09.536Z,24.4990
2023-03-17T22:38:11.309Z,24.5023
2023-03-17T22:39:13.020Z,24.5058
2023-03-17T22:40:14.835Z,24.5048
2023-03-17T22:41:16.599Z,24.4994
2023-03-17T22:42:18.310Z,24.5085
2023-03-17T22:43:20.075Z,24.5039
2023-03-17T22:44:21.798Z,24.4937
2023-03-17T22:45:23.510Z,24.5052
2023-03-17T22:46:25.477Z,24.4947
2023-03-17T22:47:27.089Z,24.5021
2023-03-17T22:48:28.865Z,24.4920
2023-03-17T22:49:30.573Z,24.4818
2023-03-17T22:50:32.581Z,24.4723
2023-03-17T22:51:34.121Z,24.4645
2023-03-17T22:52:35.864Z,24.4672
2023-03-17T22:53:37.588Z,24.4742
2023-03-17T22:54:39.350Z,24.4702
2023-03-17T22:55:41.077Z,24.4838
2023-03-17T22:56:42.901Z,24.4891
2023-03-17T22:57:44.579Z,24.4990
2023-03-17T22:58:46.350Z,24.4867
2023-03-17T22:59:48.077Z,24.4865
2023-03-17T23:00:49.900Z,24.4918
2023-03-17T23:01:51.647Z,24.4776
2023-03-17T23:02:53.383Z,24.4797
2023-03-17T23:03:55.185Z,24.4758
2023-03-17T23:04:56.835Z,24.4791
2023-03-17T23:05:58.748Z,24.4916
2023-03-17T23:07:00.419Z,24.4871
2023-03-17T23:08:02.048Z,24.4881
2023-03-17T23:09:03.834Z,24.4661
2023-03-17T23:10:05.583Z,24.4618
2023-03-17T23:11:07.316Z,24.4813
2023-03-17T23:12:09.100Z,24.4733
2023-03-17T23:13:10.818Z,24.4824
2023-03-17T23:14:12.623Z,24.4986
2023-03-17T23:15:14.339Z,24.5150
2023-03-17T23:16:16.081Z,24.5039
2023-03-17T23:17:17.857Z,24.5023
2023-03-17T23:18:19.528Z,24.5011
2023-03-17T23:19:22.431Z,24.5142
2023-03-17T23:20:23.029Z,24.5179
2023-03-17T23:21:24.801Z,24.5080
2023-03-17T23:22:26.593Z,24.5111
2023-03-17T23:23:28.292Z,24.5068
2023-03-17T23:24:29.993Z,24.4906
2023-03-17T23:25:31.800Z,24.4961
2023-03-17T23:26:33.511Z,24.4900
2023-03-17T23:27:35.414Z,24.4965
2023-03-17T23:28:36.991Z,24.4902
2023-03-17T23:29:38.751Z,24.4930
2023-03-17T23:30:40.509Z,24.4988
2023-03-17T23:31:42.258Z,24.5002
2023-03-17T23:32:44.067Z,24.5150
2023-03-17T23:33:45.749Z,24.5193
2023-03-17T23:34:47.454Z,24.5358
2023-03-17T23:35:49.267Z,24.5520
2023-03-17T23:36:51.021Z,24.5325
2023-03-17T23:37:52.944Z,24.5391
2023-03-17T23:38:54.431Z,24.5329
2023-03-17T23:39:56.240Z,24.5382
2023-03-17T23:40:57.949Z,24.5532
2023-03-17T23:41:59.725Z,24.5475
2023-03-17T23:43:01.486Z,24.5356
2023-03-17T23:44:03.197Z,24.5512
2023-03-17T23:45:04.954Z,24.5602
2023-03-17T23:46:06.734Z,24.5352
2023-03-17T23:47:08.413Z,24.5343
2023-03-17T23:48:10.232Z,24.5208
2023-03-17T23:49:11.938Z,24.5134
2023-03-17T23:50:13.692Z,24.5146
2023-03-17T23:51:15.408Z,24.4998
2023-03-17T23:52:17.184Z,24.5031
2023-03-17T23:53:19.057Z,24.4967
2023-03-17T23:54:20.670Z,24.5115
2023-03-17T23:55:22.384Z,24.5218
2023-03-17T23:56:24.149Z,24.5200
2023-03-17T23:57:26.134Z,24.5204
2023-03-17T23:58:27.662Z,24.5021
2023-03-17T23:59:29.428Z,24.5054
